sensor_id;sensor_type;location;lat;lon;timestamp;P1;durP1;ratioP1;P2;durP2;ratioP2
5684;SDS011;2865;53.114;9.130;2022-10-31T00:01:44;13.57;;;8.80;;
5684;SDS011;2865;53.114;9.130;2022-10-31T00:04:09;14.67;;;9.83;;
5684;SDS011;2865;53.114;9.130;2022-10-31T00:06:34;16.20;;;10.10;;
5684;SDS011;2865;53.114;9.130;2022-10-31T00:09:00;13.07;;;9.10;;
5684;SDS011;2865;53.114;9.130;2022-10-31T00:11:25;13.30;;;9.70;;
5684;SDS011;2865;53.114;9.130;2022-10-31T00:13:50;14.80;;;10.47;;
5684;SDS011;2865;53.114;9.130;2022-10-31T00:16:16;17.20;;;11.13;;
5684;SDS011;2865;53.114;9.130;2022-10-31T00:18:41;18.10;;;9.60;;
5684;SDS011;2865;53.114;9.130;2022-10-31T00:21:06;17.43;;;10.70;;
5684;SDS011;2865;53.114;9.130;2022-10-31T00:23:31;14.93;;;9.57;;
5684;SDS011;2865;53.114;9.130;2022-10-31T00:26:01;14.53;;;10.70;;
5684;SDS011;2865;53.114;9.130;2022-10-31T00:28:26;14.63;;;11.70;;
5684;SDS011;2865;53.114;9.130;2022-10-31T00:30:51;20.10;;;11.30;;
5684;SDS011;2865;53.114;9.130;2022-10-31T00:33:17;20.53;;;12.40;;
5684;SDS011;2865;53.114;9.130;2022-10-31T00:35:43;14.53;;;9.80;;
5684;SDS011;2865;53.114;9.130;2022-10-31T00:38:08;12.90;;;10.13;;
5684;SDS011;2865;53.114;9.130;2022-10-31T00:40:33;12.40;;;10.90;;
5684;SDS011;2865;53.114;9.130;2022-10-31T00:42:58;14.97;;;10.30;;
5684;SDS011;2865;53.114;9.130;2022-10-31T00:45:24;14.73;;;10.67;;
5684;SDS011;2865;53.114;9.130;2022-10-31T00:47:49;15.37;;;11.30;;
5684;SDS011;2865;53.114;9.130;2022-10-31T00:50:14;14.60;;;10.70;;
5684;SDS011;2865;53.114;9.130;2022-10-31T00:52:40;14.90;;;10.83;;
5684;SDS011;2865;53.114;9.130;2022-10-31T00:55:05;15.93;;;10.00;;
5684;SDS011;2865;53.114;9.130;2022-10-31T00:57:31;11.43;;;9.70;;
5684;SDS011;2865;53.114;9.130;2022-10-31T00:59:57;15.30;;;10.20;;
5684;SDS011;2865;53.114;9.130;2022-10-31T01:02:23;13.83;;;9.53;;
5684;SDS011;2865;53.114;9.130;2022-10-31T01:04:49;12.77;;;10.30;;
5684;SDS011;2865;53.114;9.130;2022-10-31T01:07:15;15.30;;;9.07;;
5684;SDS011;2865;53.114;9.130;2022-10-31T01:09:41;14.10;;;8.97;;
5684;SDS011;2865;53.114;9.130;2022-10-31T01:12:13;13.87;;;9.20;;
5684;SDS011;2865;53.114;9.130;2022-10-31T01:14:42;14.47;;;11.00;;
5684;SDS011;2865;53.114;9.130;2022-10-31T01:17:04;12.43;;;10.20;;
5684;SDS011;2865;53.114;9.130;2022-10-31T01:19:30;16.20;;;10.43;;
5684;SDS011;2865;53.114;9.130;2022-10-31T01:21:56;19.93;;;11.90;;
5684;SDS011;2865;53.114;9.130;2022-10-31T01:24:21;21.47;;;11.57;;
5684;SDS011;2865;53.114;9.130;2022-10-31T01:26:48;17.47;;;11.87;;
5684;SDS011;2865;53.114;9.130;2022-10-31T01:29:14;14.67;;;11.83;;
5684;SDS011;2865;53.114;9.130;2022-10-31T01:31:39;14.27;;;12.37;;
5684;SDS011;2865;53.114;9.130;2022-10-31T01:34:05;17.53;;;13.30;;
5684;SDS011;2865;53.114;9.130;2022-10-31T01:36:31;12.57;;;9.57;;
5684;SDS011;2865;53.114;9.130;2022-10-31T01:38:58;11.50;;;9.13;;
5684;SDS011;2865;53.114;9.130;2022-10-31T01:41:25;12.87;;;10.00;;
5684;SDS011;2865;53.114;9.130;2022-10-31T01:43:50;12.13;;;10.27;;
5684;SDS011;2865;53.114;9.130;2022-10-31T01:46:20;13.30;;;9.67;;
5684;SDS011;2865;53.114;9.130;2022-10-31T01:48:43;10.53;;;9.30;;
5684;SDS011;2865;53.114;9.130;2022-10-31T01:51:08;21.70;;;11.10;;
5684;SDS011;2865;53.114;9.130;2022-10-31T01:53:33;16.10;;;11.07;;
5684;SDS011;2865;53.114;9.130;2022-10-31T01:55:59;18.03;;;13.03;;
5684;SDS011;2865;53.114;9.130;2022-10-31T01:58:25;14.30;;;11.07;;
5684;SDS011;2865;53.114;9.130;2022-10-31T02:00:51;13.67;;;11.23;;
5684;SDS011;2865;53.114;9.130;2022-10-31T02:03:16;16.50;;;12.07;;
5684;SDS011;2865;53.114;9.130;2022-10-31T02:05:41;16.57;;;11.90;;
5684;SDS011;2865;53.114;9.130;2022-10-31T02:08:08;17.50;;;11.30;;
5684;SDS011;2865;53.114;9.130;2022-10-31T02:10:43;14.13;;;11.20;;
5684;SDS011;2865;53.114;9.130;2022-10-31T02:13:09;12.90;;;10.97;;
5684;SDS011;2865;53.114;9.130;2022-10-31T02:15:35;15.10;;;11.50;;
5684;SDS011;2865;53.114;9.130;2022-10-31T02:17:59;14.33;;;11.70;;
5684;SDS011;2865;53.114;9.130;2022-10-31T02:20:25;17.63;;;12.90;;
5684;SDS011;2865;53.114;9.130;2022-10-31T02:28:19;17.40;;;12.87;;
5684;SDS011;2865;53.114;9.130;2022-10-31T02:31:19;20.20;;;14.70;;
5684;SDS011;2865;53.114;9.130;2022-10-31T02:33:45;16.63;;;12.53;;
5684;SDS011;2865;53.114;9.130;2022-10-31T02:36:28;14.13;;;11.67;;
5684;SDS011;2865;53.114;9.130;2022-10-31T02:38:56;13.40;;;10.97;;
5684;SDS011;2865;53.114;9.130;2022-10-31T02:41:46;11.67;;;10.10;;
5684;SDS011;2865;53.114;9.130;2022-10-31T02:44:16;9.07;;;8.17;;
5684;SDS011;2865;53.114;9.130;2022-10-31T02:46:45;9.13;;;7.90;;
5684;SDS011;2865;53.114;9.130;2022-10-31T02:49:11;8.50;;;7.70;;
5684;SDS011;2865;53.114;9.130;2022-10-31T02:51:35;15.37;;;10.67;;
5684;SDS011;2865;53.114;9.130;2022-10-31T02:54:01;11.00;;;8.77;;
5684;SDS011;2865;53.114;9.130;2022-10-31T02:56:26;13.83;;;9.73;;
5684;SDS011;2865;53.114;9.130;2022-10-31T02:58:53;10.10;;;7.97;;
5684;SDS011;2865;53.114;9.130;2022-10-31T03:04:13;13.83;;;9.80;;
5684;SDS011;2865;53.114;9.130;2022-10-31T03:06:41;11.17;;;9.50;;
5684;SDS011;2865;53.114;9.130;2022-10-31T03:09:10;11.70;;;10.47;;
5684;SDS011;2865;53.114;9.130;2022-10-31T03:11:33;11.30;;;9.17;;
5684;SDS011;2865;53.114;9.130;2022-10-31T03:14:13;14.40;;;11.80;;
5684;SDS011;2865;53.114;9.130;2022-10-31T03:16:41;14.30;;;10.80;;
5684;SDS011;2865;53.114;9.130;2022-10-31T03:19:06;17.27;;;12.83;;
5684;SDS011;2865;53.114;9.130;2022-10-31T03:21:32;15.17;;;11.80;;
5684;SDS011;2865;53.114;9.130;2022-10-31T03:23:55;14.50;;;11.87;;
5684;SDS011;2865;53.114;9.130;2022-10-31T03:26:21;15.97;;;12.77;;
5684;SDS011;2865;53.114;9.130;2022-10-31T03:28:49;15.60;;;12.40;;
5684;SDS011;2865;53.114;9.130;2022-10-31T03:31:12;14.40;;;11.73;;
5684;SDS011;2865;53.114;9.130;2022-10-31T03:33:37;12.30;;;10.67;;
5684;SDS011;2865;53.114;9.130;2022-10-31T03:36:03;12.03;;;8.50;;
5684;SDS011;2865;53.114;9.130;2022-10-31T03:38:28;9.93;;;8.33;;
5684;SDS011;2865;53.114;9.130;2022-10-31T03:40:53;8.90;;;8.00;;
5684;SDS011;2865;53.114;9.130;2022-10-31T03:43:19;15.70;;;12.30;;
5684;SDS011;2865;53.114;9.130;2022-10-31T03:45:45;13.37;;;11.97;;
5684;SDS011;2865;53.114;9.130;2022-10-31T03:48:10;13.33;;;11.20;;
5684;SDS011;2865;53.114;9.130;2022-10-31T03:50:38;16.10;;;12.00;;
5684;SDS011;2865;53.114;9.130;2022-10-31T03:53:05;15.03;;;10.53;;
5684;SDS011;2865;53.114;9.130;2022-10-31T03:55:31;13.53;;;11.10;;
5684;SDS011;2865;53.114;9.130;2022-10-31T03:58:00;12.40;;;10.50;;
5684;SDS011;2865;53.114;9.130;2022-10-31T04:00:27;13.10;;;11.23;;
5684;SDS011;2865;53.114;9.130;2022-10-31T04:03:03;15.03;;;12.43;;
5684;SDS011;2865;53.114;9.130;2022-10-31T04:05:29;13.70;;;10.73;;
5684;SDS011;2865;53.114;9.130;2022-10-31T04:07:54;14.40;;;11.20;;
5684;SDS011;2865;53.114;9.130;2022-10-31T04:10:19;12.20;;;10.37;;
5684;SDS011;2865;53.114;9.130;2022-10-31T04:12:47;10.00;;;9.10;;
5684;SDS011;2865;53.114;9.130;2022-10-31T04:15:10;11.77;;;9.30;;
5684;SDS011;2865;53.114;9.130;2022-10-31T04:17:36;10.70;;;9.43;;
5684;SDS011;2865;53.114;9.130;2022-10-31T04:20:01;11.40;;;9.60;;
5684;SDS011;2865;53.114;9.130;2022-10-31T04:22:26;11.00;;;9.37;;
5684;SDS011;2865;53.114;9.130;2022-10-31T04:24:51;12.50;;;10.00;;
5684;SDS011;2865;53.114;9.130;2022-10-31T04:27:17;10.17;;;9.17;;
5684;SDS011;2865;53.114;9.130;2022-10-31T04:29:42;12.73;;;10.40;;
5684;SDS011;2865;53.114;9.130;2022-10-31T04:32:07;11.07;;;9.37;;
5684;SDS011;2865;53.114;9.130;2022-10-31T04:34:33;11.63;;;9.80;;
5684;SDS011;2865;53.114;9.130;2022-10-31T04:36:58;12.47;;;11.17;;
5684;SDS011;2865;53.114;9.130;2022-10-31T04:39:24;16.77;;;11.80;;
5684;SDS011;2865;53.114;9.130;2022-10-31T04:41:49;13.00;;;11.70;;
5684;SDS011;2865;53.114;9.130;2022-10-31T04:44:15;12.00;;;10.80;;
5684;SDS011;2865;53.114;9.130;2022-10-31T04:46:40;14.93;;;11.90;;
5684;SDS011;2865;53.114;9.130;2022-10-31T04:49:05;17.17;;;11.53;;
5684;SDS011;2865;53.114;9.130;2022-10-31T04:51:30;15.83;;;12.77;;
5684;SDS011;2865;53.114;9.130;2022-10-31T04:53:56;16.20;;;12.43;;
5684;SDS011;2865;53.114;9.130;2022-10-31T04:56:21;19.70;;;13.13;;
5684;SDS011;2865;53.114;9.130;2022-10-31T04:58:46;16.20;;;12.77;;
5684;SDS011;2865;53.114;9.130;2022-10-31T05:01:12;16.73;;;13.30;;
5684;SDS011;2865;53.114;9.130;2022-10-31T05:03:37;15.43;;;12.33;;
5684;SDS011;2865;53.114;9.130;2022-10-31T05:06:03;13.33;;;11.57;;
5684;SDS011;2865;53.114;9.130;2022-10-31T05:08:28;14.40;;;11.87;;
5684;SDS011;2865;53.114;9.130;2022-10-31T05:10:53;12.27;;;11.00;;
5684;SDS011;2865;53.114;9.130;2022-10-31T05:13:19;12.67;;;11.47;;
5684;SDS011;2865;53.114;9.130;2022-10-31T05:15:44;10.87;;;9.87;;
5684;SDS011;2865;53.114;9.130;2022-10-31T05:18:10;11.60;;;10.40;;
5684;SDS011;2865;53.114;9.130;2022-10-31T05:20:35;12.60;;;11.30;;
5684;SDS011;2865;53.114;9.130;2022-10-31T05:23:00;13.37;;;11.60;;
5684;SDS011;2865;53.114;9.130;2022-10-31T05:25:27;12.83;;;11.63;;
5684;SDS011;2865;53.114;9.130;2022-10-31T05:27:52;12.67;;;11.37;;
5684;SDS011;2865;53.114;9.130;2022-10-31T05:30:18;12.70;;;11.30;;
5684;SDS011;2865;53.114;9.130;2022-10-31T05:32:44;16.80;;;13.33;;
5684;SDS011;2865;53.114;9.130;2022-10-31T05:35:11;17.00;;;13.83;;
5684;SDS011;2865;53.114;9.130;2022-10-31T05:37:34;19.17;;;13.83;;
5684;SDS011;2865;53.114;9.130;2022-10-31T05:39:59;19.10;;;13.73;;
5684;SDS011;2865;53.114;9.130;2022-10-31T05:42:24;17.70;;;14.20;;
5684;SDS011;2865;53.114;9.130;2022-10-31T05:44:49;19.60;;;14.33;;
5684;SDS011;2865;53.114;9.130;2022-10-31T05:47:15;15.10;;;10.90;;
5684;SDS011;2865;53.114;9.130;2022-10-31T05:49:40;13.93;;;10.63;;
5684;SDS011;2865;53.114;9.130;2022-10-31T05:52:05;11.77;;;10.63;;
5684;SDS011;2865;53.114;9.130;2022-10-31T05:54:31;10.90;;;9.80;;
5684;SDS011;2865;53.114;9.130;2022-10-31T05:56:56;15.07;;;11.60;;
5684;SDS011;2865;53.114;9.130;2022-10-31T05:59:21;14.93;;;13.17;;
5684;SDS011;2865;53.114;9.130;2022-10-31T06:01:47;16.43;;;13.07;;
5684;SDS011;2865;53.114;9.130;2022-10-31T06:04:12;19.20;;;13.70;;
5684;SDS011;2865;53.114;9.130;2022-10-31T06:06:37;14.90;;;11.80;;
5684;SDS011;2865;53.114;9.130;2022-10-31T06:09:02;16.07;;;14.10;;
5684;SDS011;2865;53.114;9.130;2022-10-31T06:11:28;15.63;;;13.47;;
5684;SDS011;2865;53.114;9.130;2022-10-31T06:13:53;18.43;;;13.90;;
5684;SDS011;2865;53.114;9.130;2022-10-31T06:16:18;18.77;;;14.23;;
5684;SDS011;2865;53.114;9.130;2022-10-31T06:18:45;18.37;;;13.63;;
5684;SDS011;2865;53.114;9.130;2022-10-31T06:21:09;22.07;;;16.57;;
5684;SDS011;2865;53.114;9.130;2022-10-31T06:23:34;17.70;;;13.77;;
5684;SDS011;2865;53.114;9.130;2022-10-31T06:25:59;20.50;;;13.90;;
5684;SDS011;2865;53.114;9.130;2022-10-31T06:28:25;19.00;;;14.87;;
5684;SDS011;2865;53.114;9.130;2022-10-31T06:30:50;15.20;;;13.30;;
5684;SDS011;2865;53.114;9.130;2022-10-31T06:33:15;17.13;;;14.17;;
5684;SDS011;2865;53.114;9.130;2022-10-31T06:35:44;16.27;;;14.37;;
5684;SDS011;2865;53.114;9.130;2022-10-31T06:38:11;17.97;;;15.07;;
5684;SDS011;2865;53.114;9.130;2022-10-31T06:40:36;18.67;;;14.53;;
5684;SDS011;2865;53.114;9.130;2022-10-31T06:43:01;19.20;;;15.97;;
5684;SDS011;2865;53.114;9.130;2022-10-31T06:45:27;16.93;;;14.67;;
5684;SDS011;2865;53.114;9.130;2022-10-31T06:47:52;16.30;;;14.30;;
5684;SDS011;2865;53.114;9.130;2022-10-31T06:50:17;16.73;;;13.80;;
5684;SDS011;2865;53.114;9.130;2022-10-31T06:52:42;15.53;;;13.93;;
5684;SDS011;2865;53.114;9.130;2022-10-31T06:55:08;16.40;;;14.00;;
5684;SDS011;2865;53.114;9.130;2022-10-31T06:57:33;14.67;;;13.10;;
5684;SDS011;2865;53.114;9.130;2022-10-31T06:59:58;14.80;;;13.30;;
5684;SDS011;2865;53.114;9.130;2022-10-31T07:02:24;16.53;;;14.70;;
5684;SDS011;2865;53.114;9.130;2022-10-31T07:04:49;16.73;;;14.53;;
5684;SDS011;2865;53.114;9.130;2022-10-31T07:07:14;18.50;;;14.87;;
5684;SDS011;2865;53.114;9.130;2022-10-31T07:09:40;17.10;;;14.97;;
5684;SDS011;2865;53.114;9.130;2022-10-31T07:12:05;18.50;;;14.90;;
5684;SDS011;2865;53.114;9.130;2022-10-31T07:14:30;18.40;;;15.60;;
5684;SDS011;2865;53.114;9.130;2022-10-31T07:16:56;23.77;;;14.70;;
5684;SDS011;2865;53.114;9.130;2022-10-31T07:19:21;15.90;;;14.10;;
5684;SDS011;2865;53.114;9.130;2022-10-31T07:21:46;15.93;;;13.97;;
5684;SDS011;2865;53.114;9.130;2022-10-31T07:24:11;15.83;;;14.13;;
5684;SDS011;2865;53.114;9.130;2022-10-31T07:26:37;14.87;;;13.30;;
5684;SDS011;2865;53.114;9.130;2022-10-31T07:29:02;13.83;;;12.43;;
5684;SDS011;2865;53.114;9.130;2022-10-31T07:31:27;15.50;;;13.70;;
5684;SDS011;2865;53.114;9.130;2022-10-31T07:33:53;15.73;;;14.10;;
5684;SDS011;2865;53.114;9.130;2022-10-31T07:36:18;19.50;;;15.63;;
5684;SDS011;2865;53.114;9.130;2022-10-31T07:38:43;15.83;;;14.00;;
5684;SDS011;2865;53.114;9.130;2022-10-31T07:41:08;17.30;;;15.50;;
5684;SDS011;2865;53.114;9.130;2022-10-31T07:43:34;16.70;;;14.67;;
5684;SDS011;2865;53.114;9.130;2022-10-31T07:45:59;15.23;;;13.60;;
5684;SDS011;2865;53.114;9.130;2022-10-31T07:48:24;16.97;;;15.17;;
5684;SDS011;2865;53.114;9.130;2022-10-31T07:50:50;15.33;;;13.73;;
5684;SDS011;2865;53.114;9.130;2022-10-31T07:53:15;16.63;;;14.93;;
5684;SDS011;2865;53.114;9.130;2022-10-31T07:55:40;21.07;;;16.60;;
5684;SDS011;2865;53.114;9.130;2022-10-31T07:58:08;16.80;;;14.83;;
5684;SDS011;2865;53.114;9.130;2022-10-31T08:00:33;17.63;;;16.00;;
5684;SDS011;2865;53.114;9.130;2022-10-31T08:03:00;16.50;;;14.80;;
5684;SDS011;2865;53.114;9.130;2022-10-31T08:05:28;14.00;;;12.60;;
5684;SDS011;2865;53.114;9.130;2022-10-31T08:07:53;15.80;;;14.10;;
5684;SDS011;2865;53.114;9.130;2022-10-31T08:10:19;47.27;;;15.67;;
5684;SDS011;2865;53.114;9.130;2022-10-31T08:12:44;18.10;;;16.20;;
5684;SDS011;2865;53.114;9.130;2022-10-31T08:15:09;21.87;;;16.77;;
5684;SDS011;2865;53.114;9.130;2022-10-31T08:17:35;19.60;;;15.70;;
5684;SDS011;2865;53.114;9.130;2022-10-31T08:20:00;18.70;;;15.60;;
5684;SDS011;2865;53.114;9.130;2022-10-31T08:22:25;44.20;;;16.20;;
5684;SDS011;2865;53.114;9.130;2022-10-31T08:24:50;28.47;;;16.43;;
5684;SDS011;2865;53.114;9.130;2022-10-31T08:27:16;16.93;;;15.30;;
5684;SDS011;2865;53.114;9.130;2022-10-31T08:29:41;51.37;;;17.40;;
5684;SDS011;2865;53.114;9.130;2022-10-31T08:32:06;29.43;;;17.27;;
5684;SDS011;2865;53.114;9.130;2022-10-31T08:34:31;16.37;;;14.70;;
5684;SDS011;2865;53.114;9.130;2022-10-31T08:36:57;18.47;;;15.17;;
5684;SDS011;2865;53.114;9.130;2022-10-31T08:39:22;45.80;;;18.93;;
5684;SDS011;2865;53.114;9.130;2022-10-31T08:41:47;19.43;;;16.93;;
5684;SDS011;2865;53.114;9.130;2022-10-31T08:44:13;19.33;;;16.90;;
5684;SDS011;2865;53.114;9.130;2022-10-31T08:46:38;20.50;;;16.30;;
5684;SDS011;2865;53.114;9.130;2022-10-31T08:49:04;22.20;;;18.47;;
5684;SDS011;2865;53.114;9.130;2022-10-31T08:51:29;64.20;;;18.40;;
5684;SDS011;2865;53.114;9.130;2022-10-31T08:53:54;20.03;;;16.47;;
5684;SDS011;2865;53.114;9.130;2022-10-31T08:56:20;18.27;;;16.23;;
5684;SDS011;2865;53.114;9.130;2022-10-31T08:58:45;18.70;;;16.70;;
5684;SDS011;2865;53.114;9.130;2022-10-31T09:01:10;16.70;;;14.87;;
5684;SDS011;2865;53.114;9.130;2022-10-31T09:03:35;23.73;;;16.33;;
5684;SDS011;2865;53.114;9.130;2022-10-31T09:06:02;18.47;;;16.47;;
5684;SDS011;2865;53.114;9.130;2022-10-31T09:08:28;18.87;;;15.53;;
5684;SDS011;2865;53.114;9.130;2022-10-31T09:10:52;22.23;;;15.47;;
5684;SDS011;2865;53.114;9.130;2022-10-31T09:13:18;17.47;;;15.63;;
5684;SDS011;2865;53.114;9.130;2022-10-31T09:15:43;16.47;;;14.77;;
5684;SDS011;2865;53.114;9.130;2022-10-31T09:18:08;17.43;;;15.50;;
5684;SDS011;2865;53.114;9.130;2022-10-31T09:20:34;15.93;;;14.27;;
5684;SDS011;2865;53.114;9.130;2022-10-31T09:23:02;16.70;;;15.00;;
5684;SDS011;2865;53.114;9.130;2022-10-31T09:25:26;20.33;;;16.23;;
5684;SDS011;2865;53.114;9.130;2022-10-31T09:27:55;16.50;;;14.80;;
5684;SDS011;2865;53.114;9.130;2022-10-31T09:30:17;18.53;;;16.30;;
5684;SDS011;2865;53.114;9.130;2022-10-31T09:32:42;16.87;;;15.07;;
5684;SDS011;2865;53.114;9.130;2022-10-31T09:35:07;31.37;;;15.73;;
5684;SDS011;2865;53.114;9.130;2022-10-31T09:37:33;25.63;;;14.50;;
5684;SDS011;2865;53.114;9.130;2022-10-31T09:39:58;16.13;;;14.50;;
5684;SDS011;2865;53.114;9.130;2022-10-31T09:42:29;18.30;;;15.60;;
5684;SDS011;2865;53.114;9.130;2022-10-31T09:45:34;17.30;;;15.50;;
5684;SDS011;2865;53.114;9.130;2022-10-31T09:47:49;16.67;;;14.93;;
5684;SDS011;2865;53.114;9.130;2022-10-31T09:50:24;19.77;;;17.53;;
5684;SDS011;2865;53.114;9.130;2022-10-31T09:52:59;32.70;;;18.00;;
5684;SDS011;2865;53.114;9.130;2022-10-31T09:55:26;23.40;;;19.73;;
5684;SDS011;2865;53.114;9.130;2022-10-31T09:57:48;19.53;;;17.17;;
5684;SDS011;2865;53.114;9.130;2022-10-31T10:00:16;20.53;;;16.77;;
5684;SDS011;2865;53.114;9.130;2022-10-31T10:02:44;30.60;;;17.90;;
5684;SDS011;2865;53.114;9.130;2022-10-31T10:05:10;22.07;;;18.00;;
5684;SDS011;2865;53.114;9.130;2022-10-31T10:07:45;23.80;;;17.73;;
5684;SDS011;2865;53.114;9.130;2022-10-31T10:10:15;20.50;;;18.37;;
5684;SDS011;2865;53.114;9.130;2022-10-31T10:16:00;84.33;;;20.30;;
5684;SDS011;2865;53.114;9.130;2022-10-31T10:21:27;24.93;;;18.97;;
5684;SDS011;2865;53.114;9.130;2022-10-31T10:23:36;22.23;;;18.90;;
5684;SDS011;2865;53.114;9.130;2022-10-31T10:26:13;38.60;;;19.80;;
5684;SDS011;2865;53.114;9.130;2022-10-31T10:28:32;24.50;;;20.00;;
5684;SDS011;2865;53.114;9.130;2022-10-31T10:31:00;24.87;;;18.87;;
5684;SDS011;2865;53.114;9.130;2022-10-31T10:33:28;31.70;;;20.57;;
5684;SDS011;2865;53.114;9.130;2022-10-31T10:35:51;28.43;;;21.63;;
5684;SDS011;2865;53.114;9.130;2022-10-31T10:40:47;26.10;;;21.40;;
5684;SDS011;2865;53.114;9.130;2022-10-31T10:43:18;27.60;;;21.13;;
5684;SDS011;2865;53.114;9.130;2022-10-31T10:45:49;36.97;;;23.03;;
5684;SDS011;2865;53.114;9.130;2022-10-31T10:48:29;36.10;;;22.47;;
5684;SDS011;2865;53.114;9.130;2022-10-31T10:50:47;46.00;;;23.77;;
5684;SDS011;2865;53.114;9.130;2022-10-31T10:53:21;43.97;;;23.40;;
5684;SDS011;2865;53.114;9.130;2022-10-31T10:56:00;36.33;;;23.00;;
5684;SDS011;2865;53.114;9.130;2022-10-31T10:58:23;33.67;;;22.77;;
5684;SDS011;2865;53.114;9.130;2022-10-31T11:00:48;30.37;;;21.87;;
5684;SDS011;2865;53.114;9.130;2022-10-31T11:03:13;38.60;;;24.93;;
5684;SDS011;2865;53.114;9.130;2022-10-31T11:05:47;31.60;;;23.80;;
5684;SDS011;2865;53.114;9.130;2022-10-31T11:10:55;36.93;;;25.23;;
5684;SDS011;2865;53.114;9.130;2022-10-31T11:15:51;47.00;;;26.37;;
5684;SDS011;2865;53.114;9.130;2022-10-31T11:18:19;34.53;;;23.80;;
5684;SDS011;2865;53.114;9.130;2022-10-31T11:20:40;36.83;;;24.60;;
5684;SDS011;2865;53.114;9.130;2022-10-31T11:23:15;33.60;;;21.90;;
5684;SDS011;2865;53.114;9.130;2022-10-31T11:25:47;42.23;;;26.17;;
5684;SDS011;2865;53.114;9.130;2022-10-31T11:28:08;39.70;;;26.27;;
5684;SDS011;2865;53.114;9.130;2022-10-31T11:30:35;41.10;;;25.37;;
5684;SDS011;2865;53.114;9.130;2022-10-31T11:32:56;40.57;;;24.73;;
5684;SDS011;2865;53.114;9.130;2022-10-31T11:35:22;38.53;;;26.87;;
5684;SDS011;2865;53.114;9.130;2022-10-31T11:37:48;39.47;;;24.77;;
5684;SDS011;2865;53.114;9.130;2022-10-31T11:40:15;34.50;;;23.40;;
5684;SDS011;2865;53.114;9.130;2022-10-31T11:42:42;39.03;;;24.90;;
5684;SDS011;2865;53.114;9.130;2022-10-31T11:45:13;38.63;;;24.47;;
5684;SDS011;2865;53.114;9.130;2022-10-31T11:47:40;35.20;;;24.50;;
5684;SDS011;2865;53.114;9.130;2022-10-31T11:50:09;43.60;;;26.30;;
5684;SDS011;2865;53.114;9.130;2022-10-31T11:52:30;38.30;;;24.47;;
5684;SDS011;2865;53.114;9.130;2022-10-31T11:54:55;43.63;;;25.70;;
5684;SDS011;2865;53.114;9.130;2022-10-31T11:57:23;44.00;;;27.67;;
5684;SDS011;2865;53.114;9.130;2022-10-31T12:00:03;42.13;;;26.40;;
5684;SDS011;2865;53.114;9.130;2022-10-31T12:02:29;43.60;;;25.57;;
5684;SDS011;2865;53.114;9.130;2022-10-31T12:05:06;38.47;;;24.30;;
5684;SDS011;2865;53.114;9.130;2022-10-31T12:07:33;41.83;;;25.20;;
5684;SDS011;2865;53.114;9.130;2022-10-31T12:09:58;35.20;;;22.97;;
5684;SDS011;2865;53.114;9.130;2022-10-31T12:12:31;35.60;;;24.47;;
5684;SDS011;2865;53.114;9.130;2022-10-31T12:15:05;38.30;;;23.27;;
5684;SDS011;2865;53.114;9.130;2022-10-31T12:17:45;40.03;;;24.57;;
5684;SDS011;2865;53.114;9.130;2022-10-31T12:22:47;31.73;;;23.17;;
5684;SDS011;2865;53.114;9.130;2022-10-31T12:25:21;42.13;;;23.23;;
5684;SDS011;2865;53.114;9.130;2022-10-31T12:27:55;37.07;;;22.33;;
5684;SDS011;2865;53.114;9.130;2022-10-31T12:30:19;37.03;;;22.70;;
5684;SDS011;2865;53.114;9.130;2022-10-31T12:32:52;35.10;;;21.30;;
5684;SDS011;2865;53.114;9.130;2022-10-31T12:35:40;28.03;;;19.33;;
5684;SDS011;2865;53.114;9.130;2022-10-31T12:41:00;30.97;;;18.47;;
5684;SDS011;2865;53.114;9.130;2022-10-31T12:46:04;30.20;;;18.00;;
5684;SDS011;2865;53.114;9.130;2022-10-31T12:48:37;25.50;;;16.70;;
5684;SDS011;2865;53.114;9.130;2022-10-31T12:51:18;27.20;;;19.53;;
5684;SDS011;2865;53.114;9.130;2022-10-31T12:53:46;31.77;;;18.67;;
5684;SDS011;2865;53.114;9.130;2022-10-31T12:56:21;28.50;;;17.20;;
5684;SDS011;2865;53.114;9.130;2022-10-31T12:58:53;25.70;;;16.40;;
5684;SDS011;2865;53.114;9.130;2022-10-31T13:01:20;26.87;;;16.90;;
5684;SDS011;2865;53.114;9.130;2022-10-31T13:03:50;23.80;;;15.87;;
5684;SDS011;2865;53.114;9.130;2022-10-31T13:06:15;26.90;;;16.70;;
5684;SDS011;2865;53.114;9.130;2022-10-31T13:08:41;23.20;;;15.90;;
5684;SDS011;2865;53.114;9.130;2022-10-31T13:11:07;26.03;;;15.67;;
5684;SDS011;2865;53.114;9.130;2022-10-31T13:13:36;28.63;;;22.50;;
5684;SDS011;2865;53.114;9.130;2022-10-31T13:16:04;19.87;;;14.90;;
5684;SDS011;2865;53.114;9.130;2022-10-31T13:18:31;22.60;;;15.30;;
5684;SDS011;2865;53.114;9.130;2022-10-31T13:20:59;18.03;;;14.43;;
5684;SDS011;2865;53.114;9.130;2022-10-31T13:23:33;22.83;;;14.43;;
5684;SDS011;2865;53.114;9.130;2022-10-31T13:25:59;27.43;;;12.97;;
5684;SDS011;2865;53.114;9.130;2022-10-31T13:28:27;22.50;;;14.30;;
5684;SDS011;2865;53.114;9.130;2022-10-31T13:30:49;24.70;;;15.57;;
5684;SDS011;2865;53.114;9.130;2022-10-31T13:33:18;24.80;;;16.37;;
5684;SDS011;2865;53.114;9.130;2022-10-31T13:35:50;23.83;;;15.33;;
5684;SDS011;2865;53.114;9.130;2022-10-31T13:38:38;29.67;;;16.07;;
5684;SDS011;2865;53.114;9.130;2022-10-31T13:41:02;26.73;;;15.50;;
5684;SDS011;2865;53.114;9.130;2022-10-31T13:46:20;26.17;;;15.47;;
5684;SDS011;2865;53.114;9.130;2022-10-31T13:48:33;27.93;;;14.67;;
5684;SDS011;2865;53.114;9.130;2022-10-31T13:51:00;28.07;;;16.67;;
5684;SDS011;2865;53.114;9.130;2022-10-31T13:58:53;21.53;;;14.67;;
5684;SDS011;2865;53.114;9.130;2022-10-31T14:01:15;26.57;;;16.97;;
5684;SDS011;2865;53.114;9.130;2022-10-31T14:03:38;26.37;;;15.43;;
5684;SDS011;2865;53.114;9.130;2022-10-31T14:06:03;22.70;;;14.30;;
5684;SDS011;2865;53.114;9.130;2022-10-31T14:08:28;24.33;;;15.90;;
5684;SDS011;2865;53.114;9.130;2022-10-31T14:10:54;30.83;;;15.37;;
5684;SDS011;2865;53.114;9.130;2022-10-31T14:13:24;29.37;;;16.80;;
5684;SDS011;2865;53.114;9.130;2022-10-31T14:15:52;23.53;;;15.93;;
5684;SDS011;2865;53.114;9.130;2022-10-31T14:18:22;23.03;;;14.17;;
5684;SDS011;2865;53.114;9.130;2022-10-31T14:20:48;30.33;;;16.87;;
5684;SDS011;2865;53.114;9.130;2022-10-31T14:25:50;28.13;;;16.43;;
5684;SDS011;2865;53.114;9.130;2022-10-31T14:28:19;28.93;;;16.73;;
5684;SDS011;2865;53.114;9.130;2022-10-31T14:30:50;34.00;;;16.57;;
5684;SDS011;2865;53.114;9.130;2022-10-31T14:33:12;24.83;;;15.40;;
5684;SDS011;2865;53.114;9.130;2022-10-31T14:35:42;22.70;;;16.03;;
5684;SDS011;2865;53.114;9.130;2022-10-31T14:43:59;29.13;;;15.83;;
5684;SDS011;2865;53.114;9.130;2022-10-31T14:46:21;28.67;;;16.37;;
5684;SDS011;2865;53.114;9.130;2022-10-31T14:48:52;30.63;;;17.30;;
5684;SDS011;2865;53.114;9.130;2022-10-31T14:51:18;34.37;;;17.80;;
5684;SDS011;2865;53.114;9.130;2022-10-31T14:53:46;33.30;;;17.67;;
5684;SDS011;2865;53.114;9.130;2022-10-31T14:56:11;28.60;;;16.67;;
5684;SDS011;2865;53.114;9.130;2022-10-31T14:58:39;31.53;;;18.30;;
5684;SDS011;2865;53.114;9.130;2022-10-31T15:01:03;30.60;;;17.47;;
5684;SDS011;2865;53.114;9.130;2022-10-31T15:03:31;30.33;;;15.90;;
5684;SDS011;2865;53.114;9.130;2022-10-31T15:05:56;28.30;;;17.30;;
5684;SDS011;2865;53.114;9.130;2022-10-31T15:08:29;34.40;;;17.70;;
5684;SDS011;2865;53.114;9.130;2022-10-31T15:10:55;23.60;;;15.70;;
5684;SDS011;2865;53.114;9.130;2022-10-31T15:13:21;33.50;;;18.97;;
5684;SDS011;2865;53.114;9.130;2022-10-31T15:15:46;27.20;;;16.50;;
5684;SDS011;2865;53.114;9.130;2022-10-31T15:18:13;25.07;;;16.97;;
5684;SDS011;2865;53.114;9.130;2022-10-31T15:20:44;24.00;;;15.50;;
5684;SDS011;2865;53.114;9.130;2022-10-31T15:23:03;29.30;;;17.83;;
5684;SDS011;2865;53.114;9.130;2022-10-31T15:25:30;29.00;;;17.27;;
5684;SDS011;2865;53.114;9.130;2022-10-31T15:27:53;28.53;;;17.67;;
5684;SDS011;2865;53.114;9.130;2022-10-31T15:30:21;33.60;;;18.07;;
5684;SDS011;2865;53.114;9.130;2022-10-31T15:32:46;31.97;;;16.57;;
5684;SDS011;2865;53.114;9.130;2022-10-31T15:35:14;27.77;;;16.60;;